sensor_id;sensor_type;location;lat;lon;timestamp;temperature;humidity
42031;DHT22;27709;52.036;5.906;2024-01-07T00:01:58;4.50;99.90
42031;DHT22;27709;52.036;5.906;2024-01-07T00:04:24;4.50;99.90
42031;DHT22;27709;52.036;5.906;2024-01-07T00:06:49;4.50;99.90
42031;DHT22;27709;52.036;5.906;2024-01-07T00:09:16;4.40;99.90
42031;DHT22;27709;52.036;5.906;2024-01-07T00:11:41;4.40;99.90
42031;DHT22;27709;52.036;5.906;2024-01-07T00:14:08;4.40;99.90
42031;DHT22;27709;52.036;5.906;2024-01-07T00:16:34;4.40;99.90
42031;DHT22;27709;52.036;5.906;2024-01-07T00:19:00;4.40;99.90
42031;DHT22;27709;52.036;5.906;2024-01-07T00:21:25;4.40;99.90
42031;DHT22;27709;52.036;5.906;2024-01-07T00:23:51;4.40;99.90
42031;DHT22;27709;52.036;5.906;2024-01-07T00:26:17;4.30;99.90
42031;DHT22;27709;52.036;5.906;2024-01-07T00:28:42;4.30;99.90
42031;DHT22;27709;52.036;5.906;2024-01-07T00:31:08;4.40;99.90
42031;DHT22;27709;52.036;5.906;2024-01-07T00:33:34;4.40;99.90
42031;DHT22;27709;52.036;5.906;2024-01-07T00:36:01;4.50;99.90
42031;DHT22;27709;52.036;5.906;2024-01-07T00:38:27;4.40;99.90
42031;DHT22;27709;52.036;5.906;2024-01-07T00:40:53;4.40;99.90
42031;DHT22;27709;52.036;5.906;2024-01-07T00:43:18;4.40;99.90
42031;DHT22;27709;52.036;5.906;2024-01-07T00:45:44;4.40;99.90
42031;DHT22;27709;52.036;5.906;2024-01-07T00:48:10;4.40;99.90
42031;DHT22;27709;52.036;5.906;2024-01-07T00:50:35;4.40;99.90
42031;DHT22;27709;52.036;5.906;2024-01-07T00:53:01;4.40;99.90
42031;DHT22;27709;52.036;5.906;2024-01-07T00:55:27;4.40;99.90
42031;DHT22;27709;52.036;5.906;2024-01-07T00:57:52;4.50;99.90
42031;DHT22;27709;52.036;5.906;2024-01-07T01:00:18;4.50;99.90
42031;DHT22;27709;52.036;5.906;2024-01-07T01:02:44;4.50;99.90
42031;DHT22;27709;52.036;5.906;2024-01-07T01:05:10;4.50;99.90
42031;DHT22;27709;52.036;5.906;2024-01-07T01:07:35;4.40;99.90
42031;DHT22;27709;52.036;5.906;2024-01-07T01:10:01;4.50;99.90
42031;DHT22;27709;52.036;5.906;2024-01-07T01:12:27;4.50;99.90
42031;DHT22;27709;52.036;5.906;2024-01-07T01:14:52;4.50;99.90
42031;DHT22;27709;52.036;5.906;2024-01-07T01:17:18;4.50;99.90
42031;DHT22;27709;52.036;5.906;2024-01-07T01:19:43;4.50;99.90
42031;DHT22;27709;52.036;5.906;2024-01-07T01:22:09;4.50;99.90
42031;DHT22;27709;52.036;5.906;2024-01-07T01:24:34;4.50;99.90
42031;DHT22;27709;52.036;5.906;2024-01-07T01:27:00;4.50;99.90
42031;DHT22;27709;52.036;5.906;2024-01-07T01:29:26;4.50;99.90
42031;DHT22;27709;52.036;5.906;2024-01-07T01:31:51;4.50;99.90
42031;DHT22;27709;52.036;5.906;2024-01-07T01:34:17;4.50;99.90
42031;DHT22;27709;52.036;5.906;2024-01-07T01:36:43;4.50;99.90
42031;DHT22;27709;52.036;5.906;2024-01-07T01:39:08;4.50;99.90
42031;DHT22;27709;52.036;5.906;2024-01-07T01:41:34;4.50;99.90
42031;DHT22;27709;52.036;5.906;2024-01-07T01:44:00;4.40;99.90
42031;DHT22;27709;52.036;5.906;2024-01-07T01:46:28;4.40;99.90
42031;DHT22;27709;52.036;5.906;2024-01-07T01:48:54;4.40;99.90
42031;DHT22;27709;52.036;5.906;2024-01-07T01:51:20;4.40;99.90
42031;DHT22;27709;52.036;5.906;2024-01-07T01:53:47;4.40;99.90
42031;DHT22;27709;52.036;5.906;2024-01-07T01:56:14;4.40;99.90
42031;DHT22;27709;52.036;5.906;2024-01-07T01:58:42;4.40;99.90
42031;DHT22;27709;52.036;5.906;2024-01-07T02:01:08;4.50;99.90
42031;DHT22;27709;52.036;5.906;2024-01-07T02:03:33;4.50;99.90
42031;DHT22;27709;52.036;5.906;2024-01-07T02:05:59;4.40;99.90
42031;DHT22;27709;52.036;5.906;2024-01-07T02:08:25;4.30;99.90
42031;DHT22;27709;52.036;5.906;2024-01-07T02:10:50;4.40;99.90
42031;DHT22;27709;52.036;5.906;2024-01-07T02:13:16;4.40;99.90
42031;DHT22;27709;52.036;5.906;2024-01-07T02:15:42;4.30;99.90
42031;DHT22;27709;52.036;5.906;2024-01-07T02:18:08;4.20;99.90
42031;DHT22;27709;52.036;5.906;2024-01-07T02:20:34;4.20;99.90
42031;DHT22;27709;52.036;5.906;2024-01-07T02:23:01;4.20;99.90
42031;DHT22;27709;52.036;5.906;2024-01-07T02:25:29;4.20;99.90
42031;DHT22;27709;52.036;5.906;2024-01-07T02:27:59;4.20;99.90
42031;DHT22;27709;52.036;5.906;2024-01-07T02:30:25;4.10;99.90
42031;DHT22;27709;52.036;5.906;2024-01-07T02:32:50;4.10;99.90
42031;DHT22;27709;52.036;5.906;2024-01-07T02:35:16;4.20;99.90
42031;DHT22;27709;52.036;5.906;2024-01-07T02:37:42;4.10;99.90
42031;DHT22;27709;52.036;5.906;2024-01-07T02:40:08;4.10;99.90
42031;DHT22;27709;52.036;5.906;2024-01-07T02:42:34;4.20;99.90
42031;DHT22;27709;52.036;5.906;2024-01-07T02:44:59;4.20;99.90
42031;DHT22;27709;52.036;5.906;2024-01-07T02:47:25;4.10;99.90
42031;DHT22;27709;52.036;5.906;2024-01-07T02:49:51;4.10;99.90
42031;DHT22;27709;52.036;5.906;2024-01-07T02:52:16;4.00;99.90
42031;DHT22;27709;52.036;5.906;2024-01-07T02:54:42;4.00;99.90
42031;DHT22;27709;52.036;5.906;2024-01-07T02:57:08;4.00;99.90
42031;DHT22;27709;52.036;5.906;2024-01-07T02:59:33;3.90;99.90
42031;DHT22;27709;52.036;5.906;2024-01-07T03:01:59;3.80;99.90
42031;DHT22;27709;52.036;5.906;2024-01-07T03:04:24;3.80;99.90
42031;DHT22;27709;52.036;5.906;2024-01-07T03:06:50;3.80;99.90
42031;DHT22;27709;52.036;5.906;2024-01-07T03:09:15;3.80;99.90
42031;DHT22;27709;52.036;5.906;2024-01-07T03:11:41;3.80;99.90
42031;DHT22;27709;52.036;5.906;2024-01-07T03:14:07;3.90;99.90
42031;DHT22;27709;52.036;5.906;2024-01-07T03:16:33;3.90;99.90
42031;DHT22;27709;52.036;5.906;2024-01-07T03:18:58;4.00;99.90
42031;DHT22;27709;52.036;5.906;2024-01-07T03:21:24;4.00;99.90
42031;DHT22;27709;52.036;5.906;2024-01-07T03:23:51;4.00;99.90
42031;DHT22;27709;52.036;5.906;2024-01-07T03:26:18;4.10;99.90
42031;DHT22;27709;52.036;5.906;2024-01-07T03:28:44;4.10;99.90
42031;DHT22;27709;52.036;5.906;2024-01-07T03:31:14;4.10;99.90
42031;DHT22;27709;52.036;5.906;2024-01-07T03:33:41;4.10;99.90
42031;DHT22;27709;52.036;5.906;2024-01-07T03:36:11;4.00;99.90
42031;DHT22;27709;52.036;5.906;2024-01-07T03:38:38;4.00;99.90
42031;DHT22;27709;52.036;5.906;2024-01-07T03:41:03;4.00;99.90
42031;DHT22;27709;52.036;5.906;2024-01-07T03:43:29;4.10;99.90
42031;DHT22;27709;52.036;5.906;2024-01-07T03:45:55;4.10;99.90
42031;DHT22;27709;52.036;5.906;2024-01-07T03:48:21;4.10;99.90
42031;DHT22;27709;52.036;5.906;2024-01-07T03:50:46;4.10;99.90
42031;DHT22;27709;52.036;5.906;2024-01-07T03:53:13;4.00;99.90
42031;DHT22;27709;52.036;5.906;2024-01-07T03:55:38;4.00;99.90
42031;DHT22;27709;52.036;5.906;2024-01-07T03:58:05;4.00;99.90
42031;DHT22;27709;52.036;5.906;2024-01-07T04:00:31;3.90;99.90
42031;DHT22;27709;52.036;5.906;2024-01-07T04:02:57;3.90;99.90
42031;DHT22;27709;52.036;5.906;2024-01-07T04:05:23;3.80;99.90
42031;DHT22;27709;52.036;5.906;2024-01-07T04:07:48;3.80;99.90
42031;DHT22;27709;52.036;5.906;2024-01-07T04:10:16;3.80;99.90
42031;DHT22;27709;52.036;5.906;2024-01-07T04:12:42;3.80;99.90
42031;DHT22;27709;52.036;5.906;2024-01-07T04:15:08;3.80;99.90
42031;DHT22;27709;52.036;5.906;2024-01-07T04:17:34;3.70;99.90
42031;DHT22;27709;52.036;5.906;2024-01-07T04:19:59;3.70;99.90
42031;DHT22;27709;52.036;5.906;2024-01-07T04:22:25;3.80;99.90
42031;DHT22;27709;52.036;5.906;2024-01-07T04:24:50;3.70;99.90
42031;DHT22;27709;52.036;5.906;2024-01-07T04:27:16;3.70;99.90
42031;DHT22;27709;52.036;5.906;2024-01-07T04:29:41;3.70;99.90
42031;DHT22;27709;52.036;5.906;2024-01-07T04:32:07;3.70;99.90
42031;DHT22;27709;52.036;5.906;2024-01-07T04:34:32;3.70;99.90
42031;DHT22;27709;52.036;5.906;2024-01-07T04:36:58;3.60;99.90
42031;DHT22;27709;52.036;5.906;2024-01-07T04:39:24;3.70;99.90
42031;DHT22;27709;52.036;5.906;2024-01-07T04:41:49;3.70;99.90
42031;DHT22;27709;52.036;5.906;2024-01-07T04:44:15;3.70;99.90
42031;DHT22;27709;52.036;5.906;2024-01-07T04:46:40;3.80;99.90
42031;DHT22;27709;52.036;5.906;2024-01-07T04:49:06;3.80;99.90
42031;DHT22;27709;52.036;5.906;2024-01-07T04:51:33;3.80;99.90
42031;DHT22;27709;52.036;5.906;2024-01-07T04:53:59;3.80;99.90
42031;DHT22;27709;52.036;5.906;2024-01-07T04:56:24;3.80;99.90
42031;DHT22;27709;52.036;5.906;2024-01-07T04:58:50;3.80;99.90
42031;DHT22;27709;52.036;5.906;2024-01-07T05:01:16;3.80;99.90
42031;DHT22;27709;52.036;5.906;2024-01-07T05:03:41;3.80;99.90
42031;DHT22;27709;52.036;5.906;2024-01-07T05:06:08;3.80;99.90
42031;DHT22;27709;52.036;5.906;2024-01-07T05:08:35;3.70;99.90
42031;DHT22;27709;52.036;5.906;2024-01-07T05:11:01;3.70;99.90
42031;DHT22;27709;52.036;5.906;2024-01-07T05:13:26;3.70;99.90
42031;DHT22;27709;52.036;5.906;2024-01-07T05:15:52;3.70;99.90
42031;DHT22;27709;52.036;5.906;2024-01-07T05:18:25;3.70;99.90
42031;DHT22;27709;52.036;5.906;2024-01-07T05:20:51;3.60;99.90
42031;DHT22;27709;52.036;5.906;2024-01-07T05:23:17;3.70;99.90
42031;DHT22;27709;52.036;5.906;2024-01-07T05:25:43;3.70;99.90
42031;DHT22;27709;52.036;5.906;2024-01-07T05:28:10;3.80;99.90
42031;DHT22;27709;52.036;5.906;2024-01-07T05:30:35;3.80;99.90
42031;DHT22;27709;52.036;5.906;2024-01-07T05:33:01;3.80;99.90
42031;DHT22;27709;52.036;5.906;2024-01-07T05:35:26;3.80;99.90
42031;DHT22;27709;52.036;5.906;2024-01-07T05:37:52;3.80;99.90
42031;DHT22;27709;52.036;5.906;2024-01-07T05:40:18;3.60;99.90
42031;DHT22;27709;52.036;5.906;2024-01-07T05:42:43;3.60;99.90
42031;DHT22;27709;52.036;5.906;2024-01-07T05:45:09;3.70;99.90
42031;DHT22;27709;52.036;5.906;2024-01-07T05:47:34;3.70;99.90
42031;DHT22;27709;52.036;5.906;2024-01-07T05:50:00;3.60;99.90
42031;DHT22;27709;52.036;5.906;2024-01-07T05:52:25;3.60;99.90
42031;DHT22;27709;52.036;5.906;2024-01-07T05:54:51;3.60;99.90
42031;DHT22;27709;52.036;5.906;2024-01-07T05:57:17;3.60;99.90
42031;DHT22;27709;52.036;5.906;2024-01-07T05:59:44;3.60;99.90
42031;DHT22;27709;52.036;5.906;2024-01-07T06:02:10;3.60;99.90
42031;DHT22;27709;52.036;5.906;2024-01-07T06:04:38;3.60;99.90
42031;DHT22;27709;52.036;5.906;2024-01-07T06:07:03;3.50;99.90
42031;DHT22;27709;52.036;5.906;2024-01-07T06:09:29;3.40;99.90
42031;DHT22;27709;52.036;5.906;2024-01-07T06:11:55;3.40;99.90
42031;DHT22;27709;52.036;5.906;2024-01-07T06:14:21;3.40;99.90
42031;DHT22;27709;52.036;5.906;2024-01-07T06:16:47;3.40;99.90
42031;DHT22;27709;52.036;5.906;2024-01-07T06:19:13;3.40;99.90
42031;DHT22;27709;52.036;5.906;2024-01-07T06:21:40;3.30;99.90
42031;DHT22;27709;52.036;5.906;2024-01-07T06:24:07;3.30;99.90
42031;DHT22;27709;52.036;5.906;2024-01-07T06:26:33;3.30;99.90
42031;DHT22;27709;52.036;5.906;2024-01-07T06:28:59;3.30;99.90
42031;DHT22;27709;52.036;5.906;2024-01-07T06:31:25;3.30;99.90
42031;DHT22;27709;52.036;5.906;2024-01-07T06:33:50;3.30;99.90
42031;DHT22;27709;52.036;5.906;2024-01-07T06:36:16;3.30;99.90
42031;DHT22;27709;52.036;5.906;2024-01-07T06:38:42;3.20;99.90
42031;DHT22;27709;52.036;5.906;2024-01-07T06:41:09;3.20;99.90
42031;DHT22;27709;52.036;5.906;2024-01-07T06:43:35;3.10;99.90
42031;DHT22;27709;52.036;5.906;2024-01-07T06:46:00;3.00;99.90
42031;DHT22;27709;52.036;5.906;2024-01-07T06:48:29;3.00;99.90
42031;DHT22;27709;52.036;5.906;2024-01-07T06:50:55;2.90;99.90
42031;DHT22;27709;52.036;5.906;2024-01-07T06:53:21;2.90;99.90
42031;DHT22;27709;52.036;5.906;2024-01-07T06:55:47;2.90;99.90
42031;DHT22;27709;52.036;5.906;2024-01-07T06:58:12;2.80;99.90
42031;DHT22;27709;52.036;5.906;2024-01-07T07:00:38;2.80;99.90
42031;DHT22;27709;52.036;5.906;2024-01-07T07:03:04;2.80;99.90
42031;DHT22;27709;52.036;5.906;2024-01-07T07:05:30;2.80;99.90
42031;DHT22;27709;52.036;5.906;2024-01-07T07:07:56;2.80;99.90
42031;DHT22;27709;52.036;5.906;2024-01-07T07:10:22;2.90;99.90
42031;DHT22;27709;52.036;5.906;2024-01-07T07:12:47;2.80;99.90
42031;DHT22;27709;52.036;5.906;2024-01-07T07:15:13;2.80;99.90
42031;DHT22;27709;52.036;5.906;2024-01-07T07:17:39;2.80;99.90
42031;DHT22;27709;52.036;5.906;2024-01-07T07:20:05;2.80;99.90
42031;DHT22;27709;52.036;5.906;2024-01-07T07:22:31;2.90;99.90
42031;DHT22;27709;52.036;5.906;2024-01-07T07:24:57;2.90;99.90
42031;DHT22;27709;52.036;5.906;2024-01-07T07:27:22;2.90;99.90
42031;DHT22;27709;52.036;5.906;2024-01-07T07:29:48;2.80;99.90
42031;DHT22;27709;52.036;5.906;2024-01-07T07:32:13;2.80;99.90
42031;DHT22;27709;52.036;5.906;2024-01-07T07:34:39;2.80;99.90
42031;DHT22;27709;52.036;5.906;2024-01-07T07:37:04;2.80;99.90
42031;DHT22;27709;52.036;5.906;2024-01-07T07:39:32;2.70;99.90
42031;DHT22;27709;52.036;5.906;2024-01-07T07:41:58;2.80;99.90
42031;DHT22;27709;52.036;5.906;2024-01-07T07:44:24;2.80;99.90
42031;DHT22;27709;52.036;5.906;2024-01-07T07:46:49;2.80;99.90
42031;DHT22;27709;52.036;5.906;2024-01-07T07:49:15;2.80;99.90
42031;DHT22;27709;52.036;5.906;2024-01-07T07:51:43;2.90;99.90
42031;DHT22;27709;52.036;5.906;2024-01-07T07:54:08;2.80;99.90
42031;DHT22;27709;52.036;5.906;2024-01-07T07:56:34;2.60;99.90
42031;DHT22;27709;52.036;5.906;2024-01-07T07:59:01;2.60;99.90
42031;DHT22;27709;52.036;5.906;2024-01-07T08:01:30;2.60;99.90
42031;DHT22;27709;52.036;5.906;2024-01-07T08:03:56;2.50;99.90
42031;DHT22;27709;52.036;5.906;2024-01-07T08:06:49;2.50;99.90
42031;DHT22;27709;52.036;5.906;2024-01-07T08:09:19;2.50;99.90
42031;DHT22;27709;52.036;5.906;2024-01-07T08:11:55;2.50;99.90
42031;DHT22;27709;52.036;5.906;2024-01-07T08:14:20;2.60;99.90
42031;DHT22;27709;52.036;5.906;2024-01-07T08:16:56;2.50;99.90
42031;DHT22;27709;52.036;5.906;2024-01-07T08:19:37;2.50;99.90
42031;DHT22;27709;52.036;5.906;2024-01-07T08:22:06;2.50;99.90
42031;DHT22;27709;52.036;5.906;2024-01-07T08:24:32;2.50;99.90
42031;DHT22;27709;52.036;5.906;2024-01-07T08:27:22;2.40;99.90
42031;DHT22;27709;52.036;5.906;2024-01-07T08:29:49;2.40;99.90
42031;DHT22;27709;52.036;5.906;2024-01-07T08:32:26;2.40;99.90
42031;DHT22;27709;52.036;5.906;2024-01-07T08:34:55;2.30;99.90
42031;DHT22;27709;52.036;5.906;2024-01-07T08:37:25;2.30;99.90
42031;DHT22;27709;52.036;5.906;2024-01-07T08:39:53;2.40;99.90
42031;DHT22;27709;52.036;5.906;2024-01-07T08:42:27;2.50;99.90
42031;DHT22;27709;52.036;5.906;2024-01-07T08:44:54;2.40;99.90
42031;DHT22;27709;52.036;5.906;2024-01-07T08:47:22;2.50;99.90
42031;DHT22;27709;52.036;5.906;2024-01-07T08:49:54;2.30;99.90
42031;DHT22;27709;52.036;5.906;2024-01-07T08:52:43;2.40;99.90
42031;DHT22;27709;52.036;5.906;2024-01-07T08:55:31;2.40;99.90
42031;DHT22;27709;52.036;5.906;2024-01-07T08:57:56;2.40;99.90
42031;DHT22;27709;52.036;5.906;2024-01-07T09:00:22;2.30;99.90
42031;DHT22;27709;52.036;5.906;2024-01-07T09:02:54;2.20;99.90
42031;DHT22;27709;52.036;5.906;2024-01-07T09:05:20;2.20;99.90
42031;DHT22;27709;52.036;5.906;2024-01-07T09:07:47;2.20;99.90
42031;DHT22;27709;52.036;5.906;2024-01-07T09:10:12;2.20;99.90
42031;DHT22;27709;52.036;5.906;2024-01-07T09:12:39;2.30;99.90
42031;DHT22;27709;52.036;5.906;2024-01-07T09:15:05;2.20;99.90
42031;DHT22;27709;52.036;5.906;2024-01-07T09:17:37;2.20;99.90
42031;DHT22;27709;52.036;5.906;2024-01-07T09:20:09;2.30;99.90
42031;DHT22;27709;52.036;5.906;2024-01-07T09:22:35;2.30;99.90
42031;DHT22;27709;52.036;5.906;2024-01-07T09:25:02;2.30;99.90
42031;DHT22;27709;52.036;5.906;2024-01-07T09:27:32;2.30;99.90
42031;DHT22;27709;52.036;5.906;2024-01-07T09:30:01;2.30;99.90
42031;DHT22;27709;52.036;5.906;2024-01-07T09:32:27;2.30;99.90
42031;DHT22;27709;52.036;5.906;2024-01-07T09:34:56;2.30;99.90
42031;DHT22;27709;52.036;5.906;2024-01-07T09:37:23;2.30;99.90
42031;DHT22;27709;52.036;5.906;2024-01-07T09:42:30;2.40;99.90
42031;DHT22;27709;52.036;5.906;2024-01-07T09:44:56;2.40;99.90
42031;DHT22;27709;52.036;5.906;2024-01-07T09:47:22;2.50;99.90
42031;DHT22;27709;52.036;5.906;2024-01-07T09:49:55;2.40;99.80
42031;DHT22;27709;52.036;5.906;2024-01-07T09:52:27;2.30;99.90
42031;DHT22;27709;52.036;5.906;2024-01-07T09:54:58;2.20;99.90
42031;DHT22;27709;52.036;5.906;2024-01-07T09:57:28;2.20;99.90
42031;DHT22;27709;52.036;5.906;2024-01-07T09:59:56;2.30;99.90
42031;DHT22;27709;52.036;5.906;2024-01-07T10:02:39;2.40;99.90
42031;DHT22;27709;52.036;5.906;2024-01-07T10:05:10;2.30;99.80
42031;DHT22;27709;52.036;5.906;2024-01-07T10:07:35;2.40;99.70
42031;DHT22;27709;52.036;5.906;2024-01-07T10:10:14;2.50;99.90
42031;DHT22;27709;52.036;5.906;2024-01-07T10:12:54;2.70;99.90
42031;DHT22;27709;52.036;5.906;2024-01-07T10:15:22;2.70;99.50
42031;DHT22;27709;52.036;5.906;2024-01-07T10:17:48;2.60;99.30
42031;DHT22;27709;52.036;5.906;2024-01-07T10:20:13;2.60;98.80
42031;DHT22;27709;52.036;5.906;2024-01-07T10:22:48;2.50;98.80
42031;DHT22;27709;52.036;5.906;2024-01-07T10:25:20;2.40;98.90
42031;DHT22;27709;52.036;5.906;2024-01-07T10:27:48;2.40;99.00
42031;DHT22;27709;52.036;5.906;2024-01-07T10:30:19;2.40;99.20
42031;DHT22;27709;52.036;5.906;2024-01-07T10:32:47;2.50;99.00
42031;DHT22;27709;52.036;5.906;2024-01-07T10:35:13;2.50;98.70
42031;DHT22;27709;52.036;5.906;2024-01-07T10:37:45;2.60;98.30
42031;DHT22;27709;52.036;5.906;2024-01-07T10:40:13;2.60;98.40
42031;DHT22;27709;52.036;5.906;2024-01-07T10:42:43;2.60;98.50
42031;DHT22;27709;52.036;5.906;2024-01-07T10:45:11;2.60;98.00
42031;DHT22;27709;52.036;5.906;2024-01-07T10:47:48;2.70;98.70
42031;DHT22;27709;52.036;5.906;2024-01-07T10:50:16;2.80;98.10
42031;DHT22;27709;52.036;5.906;2024-01-07T10:52:49;2.80;98.40
42031;DHT22;27709;52.036;5.906;2024-01-07T10:55:18;2.90;98.20
42031;DHT22;27709;52.036;5.906;2024-01-07T10:57:45;2.80;97.70
42031;DHT22;27709;52.036;5.906;2024-01-07T11:00:16;2.80;97.80
42031;DHT22;27709;52.036;5.906;2024-01-07T11:03:14;2.70;97.90
42031;DHT22;27709;52.036;5.906;2024-01-07T11:05:59;2.70;97.90
42031;DHT22;27709;52.036;5.906;2024-01-07T11:09:19;2.60;97.90
42031;DHT22;27709;52.036;5.906;2024-01-07T11:11:45;2.70;98.00
42031;DHT22;27709;52.036;5.906;2024-01-07T11:17:39;2.70;98.00
42031;DHT22;27709;52.036;5.906;2024-01-07T11:20:07;2.60;97.60
42031;DHT22;27709;52.036;5.906;2024-01-07T11:22:43;2.60;97.50
42031;DHT22;27709;52.036;5.906;2024-01-07T11:25:28;2.70;98.10
42031;DHT22;27709;52.036;5.906;2024-01-07T11:27:58;2.60;97.20
42031;DHT22;27709;52.036;5.906;2024-01-07T11:30:26;2.50;97.10
42031;DHT22;27709;52.036;5.906;2024-01-07T11:36:02;2.60;97.50
42031;DHT22;27709;52.036;5.906;2024-01-07T11:38:28;2.70;97.20
42031;DHT22;27709;52.036;5.906;2024-01-07T11:40:54;2.60;97.30
42031;DHT22;27709;52.036;5.906;2024-01-07T11:43:21;2.60;96.90
42031;DHT22;27709;52.036;5.906;2024-01-07T11:45:49;2.60;96.40
42031;DHT22;27709;52.036;5.906;2024-01-07T11:48:14;2.60;95.60
42031;DHT22;27709;52.036;5.906;2024-01-07T11:50:41;2.50;96.10
42031;DHT22;27709;52.036;5.906;2024-01-07T11:53:07;2.50;96.30
42031;DHT22;27709;52.036;5.906;2024-01-07T11:55:33;2.60;95.60
42031;DHT22;27709;52.036;5.906;2024-01-07T11:58:01;2.70;95.80
42031;DHT22;27709;52.036;5.906;2024-01-07T12:00:27;2.70;95.50
42031;DHT22;27709;52.036;5.906;2024-01-07T12:02:53;2.80;95.00
42031;DHT22;27709;52.036;5.906;2024-01-07T12:05:18;2.80;96.00
42031;DHT22;27709;52.036;5.906;2024-01-07T12:07:44;2.80;95.30
42031;DHT22;27709;52.036;5.906;2024-01-07T12:10:10;2.70;95.70
42031;DHT22;27709;52.036;5.906;2024-01-07T12:12:38;2.70;95.30
42031;DHT22;27709;52.036;5.906;2024-01-07T12:15:08;2.60;94.50
42031;DHT22;27709;52.036;5.906;2024-01-07T12:17:34;2.50;94.70
42031;DHT22;27709;52.036;5.906;2024-01-07T12:20:03;2.40;95.00
42031;DHT22;27709;52.036;5.906;2024-01-07T12:22:30;2.30;95.30
42031;DHT22;27709;52.036;5.906;2024-01-07T12:25:06;2.40;95.10
42031;DHT22;27709;52.036;5.906;2024-01-07T12:27:32;2.40;94.90
42031;DHT22;27709;52.036;5.906;2024-01-07T12:30:00;2.50;94.80
42031;DHT22;27709;52.036;5.906;2024-01-07T12:32:30;2.50;95.20
42031;DHT22;27709;52.036;5.906;2024-01-07T12:34:59;2.70;94.80
42031;DHT22;27709;52.036;5.906;2024-01-07T12:37:28;2.80;94.80
42031;DHT22;27709;52.036;5.906;2024-01-07T12:39:54;2.90;94.70
42031;DHT22;27709;52.036;5.906;2024-01-07T12:42:20;3.10;94.60
42031;DHT22;27709;52.036;5.906;2024-01-07T12:44:49;3.20;94.70
42031;DHT22;27709;52.036;5.906;2024-01-07T12:47:15;3.50;95.20
42031;DHT22;27709;52.036;5.906;2024-01-07T12:49:41;3.70;94.40
42031;DHT22;27709;52.036;5.906;2024-01-07T12:52:07;3.60;94.00
42031;DHT22;27709;52.036;5.906;2024-01-07T12:54:32;3.60;94.40
42031;DHT22;27709;52.036;5.906;2024-01-07T12:56:59;3.50;93.90
42031;DHT22;27709;52.036;5.906;2024-01-07T12:59:25;3.20;93.70
42031;DHT22;27709;52.036;5.906;2024-01-07T13:01:51;3.10;94.00
42031;DHT22;27709;52.036;5.906;2024-01-07T13:04:19;3.10;94.00
42031;DHT22;27709;52.036;5.906;2024-01-07T13:06:45;3.00;94.70
42031;DHT22;27709;52.036;5.906;2024-01-07T13:09:11;3.00;94.20
42031;DHT22;27709;52.036;5.906;2024-01-07T13:11:37;3.10;94.20
42031;DHT22;27709;52.036;5.906;2024-01-07T13:14:02;3.10;94.50
42031;DHT22;27709;52.036;5.906;2024-01-07T13:16:28;3.20;93.60
42031;DHT22;27709;52.036;5.906;2024-01-07T13:18:54;3.20;93.50
42031;DHT22;27709;52.036;5.906;2024-01-07T13:21:20;3.20;94.10
42031;DHT22;27709;52.036;5.906;2024-01-07T13:23:46;3.10;93.40
42031;DHT22;27709;52.036;5.906;2024-01-07T13:26:16;3.00;93.60
42031;DHT22;27709;52.036;5.906;2024-01-07T13:28:42;2.90;93.60
42031;DHT22;27709;52.036;5.906;2024-01-07T13:31:10;2.80;93.70
42031;DHT22;27709;52.036;5.906;2024-01-07T13:33:40;2.80;93.30
42031;DHT22;27709;52.036;5.906;2024-01-07T13:36:05;2.70;93.70
42031;DHT22;27709;52.036;5.906;2024-01-07T13:38:35;2.70;94.20
42031;DHT22;27709;52.036;5.906;2024-01-07T13:41:01;2.60;94.20
42031;DHT22;27709;52.036;5.906;2024-01-07T13:43:27;2.60;93.70
42031;DHT22;27709;52.036;5.906;2024-01-07T13:45:55;2.50;93.70
42031;DHT22;27709;52.036;5.906;2024-01-07T13:48:21;2.50;93.70
42031;DHT22;27709;52.036;5.906;2024-01-07T13:50:46;2.40;93.80
42031;DHT22;27709;52.036;5.906;2024-01-07T13:53:15;2.40;94.00
42031;DHT22;27709;52.036;5.906;2024-01-07T13:55:40;2.30;93.90
42031;DHT22;27709;52.036;5.906;2024-01-07T13:58:06;2.20;94.10
42031;DHT22;27709;52.036;5.906;2024-01-07T14:00:31;2.10;94.10
42031;DHT22;27709;52.036;5.906;2024-01-07T14:02:57;2.10;94.00
42031;DHT22;27709;52.036;5.906;2024-01-07T14:05:23;2.20;94.10
42031;DHT22;27709;52.036;5.906;2024-01-07T14:07:48;2.20;94.40
42031;DHT22;27709;52.036;5.906;2024-01-07T14:10:14;2.30;93.90
42031;DHT22;27709;52.036;5.906;2024-01-07T14:12:41;2.20;94.30
42031;DHT22;27709;52.036;5.906;2024-01-07T14:15:07;2.20;94.70
42031;DHT22;27709;52.036;5.906;2024-01-07T14:17:34;2.30;94.90
42031;DHT22;27709;52.036;5.906;2024-01-07T14:20:00;2.30;94.60
42031;DHT22;27709;52.036;5.906;2024-01-07T14:22:25;2.30;93.90
42031;DHT22;27709;52.036;5.906;2024-01-07T14:24:51;2.20;94.10
42031;DHT22;27709;52.036;5.906;2024-01-07T14:27:17;2.10;93.90
42031;DHT22;27709;52.036;5.906;2024-01-07T14:29:43;2.10;94.40
42031;DHT22;27709;52.036;5.906;2024-01-07T14:32:10;2.10;94.00
42031;DHT22;27709;52.036;5.906;2024-01-07T14:34:38;2.10;94.30
42031;DHT22;27709;52.036;5.906;2024-01-07T14:37:07;2.10;94.70
42031;DHT22;27709;52.036;5.906;2024-01-07T14:39:33;2.20;94.00
42031;DHT22;27709;52.036;5.906;2024-01-07T14:41:58;2.20;94.00
42031;DHT22;27709;52.036;5.906;2024-01-07T14:44:26;2.20;94.30
42031;DHT22;27709;52.036;5.906;2024-01-07T14:46:52;2.20;94.30
42031;DHT22;27709;52.036;5.906;2024-01-07T14:49:17;2.20;95.00
42031;DHT22;27709;52.036;5.906;2024-01-07T14:51:43;2.20;94.50
42031;DHT22;27709;52.036;5.906;2024-01-07T14:54:08;2.20;94.90
42031;DHT22;27709;52.036;5.906;2024-01-07T14:56:34;2.30;94.90
42031;DHT22;27709;52.036;5.906;2024-01-07T14:59:01;2.30;95.20
42031;DHT22;27709;52.036;5.906;2024-01-07T15:01:27;2.30;95.50
42031;DHT22;27709;52.036;5.906;2024-01-07T15:03:54;2.40;95.60
42031;DHT22;27709;52.036;5.906;2024-01-07T15:06:19;2.30;94.70
42031;DHT22;27709;52.036;5.906;2024-01-07T15:08:46;2.20;94.50
42031;DHT22;27709;52.036;5.906;2024-01-07T15:11:16;2.10;94.90
42031;DHT22;27709;52.036;5.906;2024-01-07T15:13:42;2.10;95.40
42031;DHT22;27709;52.036;5.906;2024-01-07T15:16:09;2.10;94.60
42031;DHT22;27709;52.036;5.906;2024-01-07T15:18:35;2.00;95.10
42031;DHT22;27709;52.036;5.906;2024-01-07T15:21:02;2.00;95.30
42031;DHT22;27709;52.036;5.906;2024-01-07T15:23:28;1.90;95.10
42031;DHT22;27709;52.036;5.906;2024-01-07T15:25:54;1.90;95.20
42031;DHT22;27709;52.036;5.906;2024-01-07T15:28:19;1.90;95.40
42031;DHT22;27709;52.036;5.906;2024-01-07T15:30:45;1.90;95.30
42031;DHT22;27709;52.036;5.906;2024-01-07T15:33:10;1.80;95.60
42031;DHT22;27709;52.036;5.906;2024-01-07T15:35:36;1.80;95.40
42031;DHT22;27709;52.036;5.906;2024-01-07T15:38:02;1.80;95.80
42031;DHT22;27709;52.036;5.906;2024-01-07T15:40:27;1.80;95.90
42031;DHT22;27709;52.036;5.906;2024-01-07T15:42:53;1.80;96.20
42031;DHT22;27709;52.036;5.906;2024-01-07T15:45:18;1.80;96.20
42031;DHT22;27709;52.036;5.906;2024-01-07T15:47:44;1.80;96.20
42031;DHT22;27709;52.036;5.906;2024-01-07T15:50:09;1.80;96.50
42031;DHT22;27709;52.036;5.906;2024-01-07T15:52:38;1.70;97.10
42031;DHT22;27709;52.036;5.906;2024-01-07T15:55:06;1.70;97.70